Accueil
METAR-TAF:

METAR-TAF

Aéroports :

Florence, Italie

Aéroport de Florence-Peretola

latitude: 43-48N, longitude: 011-12E, altitude: 40 m

Observation

Le bulletin a été fait il y a 33 minutes, à 09:50 UTC
Vent 13 kt de nord-est, variant entre nord/nord-ouest et est
Température 12°C
Humidité 58%
Pression 1006 hPa
Visibilité 10 km ou plus
Quelques nuages à une hauteur de 8000 ft

METAR: LIRQ 240950Z 04013KT 340V080 9999 FEW080 12/04 Q1006 RMK WS ALL RWY

Heure: 11:23 (10:23 UTC)

Prévision

Le bulletin a été fait il y a 5 heures et 23 minutes, à 05:00 UTC
Prévision valable du 24 à 06 UTC au 25 à 06 UTC
Vent 14 kt de nord-est
Visibilité 10 km ou plus
Nuages épars à une hauteur de 2000 ft
Nuages fragmentés à une hauteur de 5000 ft
Evoluant progressivement
du 25 à 03 UTC au 25 à 06 UTC
pluie, neige

TAF: LIRQ 240500Z 2406/2506 04014KT 9999 SCT020 BKN050 BECMG 2503/2506 RASN

Observations et prévisions météorologiques de plus de 4000 aéroports (messages METAR et TAF).

Les stations disponibles sont représentées par des disques jaunes et rouges sur la carte.

Passer la souris dessus pour voir le nom de la station.

Cliquer dessus pour voir les observations et prévisions météorologiques.

Pour changer de carte: cliquez sur les boutons verts avec une croix noire pour zoomer, sur le bouton vert avec un tiret pour effectuer un zoom arrière, ou sur les flèches vertes pour les cartes adjacentes.


METAR-TAF: